sensor_id;sensor_type;location;lat;lon;timestamp;pressure;altitude;pressure_sealevel;temperature;humidity
20009;BME280;10165;42.662;23.260;2022-10-31T00:01:52;94615.03;;;17.33;42.65
20009;BME280;10165;42.662;23.260;2022-10-31T00:04:19;94618.50;;;17.30;42.67
20009;BME280;10165;42.662;23.260;2022-10-31T00:06:46;94616.25;;;16.92;43.45
20009;BME280;10165;42.662;23.260;2022-10-31T00:09:19;94604.63;;;16.88;44.01
20009;BME280;10165;42.662;23.260;2022-10-31T00:12:00;94612.75;;;16.91;44.35
20009;BME280;10165;42.662;23.260;2022-10-31T00:14:40;94612.06;;;16.98;44.25
20009;BME280;10165;42.662;23.260;2022-10-31T00:17:11;94616.91;;;16.82;44.35
20009;BME280;10165;42.662;23.260;2022-10-31T00:19:37;94609.25;;;16.87;44.64
20009;BME280;10165;42.662;23.260;2022-10-31T00:22:04;94613.81;;;16.80;44.48
20009;BME280;10165;42.662;23.260;2022-10-31T00:24:30;94619.25;;;16.87;44.84
20009;BME280;10165;42.662;23.260;2022-10-31T00:27:05;94621.72;;;16.62;45.39
20009;BME280;10165;42.662;23.260;2022-10-31T00:29:31;94610.50;;;16.26;46.36
20009;BME280;10165;42.662;23.260;2022-10-31T00:32:08;94602.28;;;16.49;45.66
20009;BME280;10165;42.662;23.260;2022-10-31T00:34:35;94604.44;;;16.66;45.20
20009;BME280;10165;42.662;23.260;2022-10-31T00:37:15;94604.06;;;16.68;45.22
20009;BME280;10165;42.662;23.260;2022-10-31T00:39:52;94599.81;;;16.67;45.44
20009;BME280;10165;42.662;23.260;2022-10-31T00:42:18;94604.19;;;16.79;45.37
20009;BME280;10165;42.662;23.260;2022-10-31T00:44:45;94592.66;;;16.85;45.19
20009;BME280;10165;42.662;23.260;2022-10-31T00:47:12;94605.19;;;16.34;46.29
20009;BME280;10165;42.662;23.260;2022-10-31T00:49:47;94600.59;;;16.34;46.43
20009;BME280;10165;42.662;23.260;2022-10-31T00:52:29;94608.03;;;16.44;46.29
20009;BME280;10165;42.662;23.260;2022-10-31T00:54:55;94597.41;;;15.95;47.93
20009;BME280;10165;42.662;23.260;2022-10-31T00:57:23;94599.44;;;16.02;47.56
20009;BME280;10165;42.662;23.260;2022-10-31T00:59:58;94600.69;;;16.45;46.26
20009;BME280;10165;42.662;23.260;2022-10-31T01:02:31;94598.69;;;16.71;45.83
20009;BME280;10165;42.662;23.260;2022-10-31T01:04:58;94597.28;;;16.85;45.37
20009;BME280;10165;42.662;23.260;2022-10-31T01:07:36;94598.88;;;16.89;45.23
20009;BME280;10165;42.662;23.260;2022-10-31T01:10:07;94608.41;;;16.80;45.49
20009;BME280;10165;42.662;23.260;2022-10-31T01:12:41;94607.47;;;16.61;45.89
20009;BME280;10165;42.662;23.260;2022-10-31T01:15:17;94610.69;;;16.74;45.68
20009;BME280;10165;42.662;23.260;2022-10-31T01:17:47;94615.75;;;16.83;45.55
20009;BME280;10165;42.662;23.260;2022-10-31T01:20:23;94622.47;;;16.59;45.96
20009;BME280;10165;42.662;23.260;2022-10-31T01:23:04;94614.59;;;16.80;45.52
20009;BME280;10165;42.662;23.260;2022-10-31T01:25:40;94614.31;;;16.92;45.45
20009;BME280;10165;42.662;23.260;2022-10-31T01:28:17;94619.25;;;16.87;45.42
20009;BME280;10165;42.662;23.260;2022-10-31T01:30:48;94609.06;;;17.10;44.93
20009;BME280;10165;42.662;23.260;2022-10-31T01:33:24;94610.81;;;17.32;44.39
20009;BME280;10165;42.662;23.260;2022-10-31T01:35:51;94613.91;;;17.34;44.66
20009;BME280;10165;42.662;23.260;2022-10-31T01:38:23;94604.34;;;17.44;44.53
20009;BME280;10165;42.662;23.260;2022-10-31T01:40:52;94608.91;;;16.89;46.08
20009;BME280;10165;42.662;23.260;2022-10-31T01:43:19;94612.00;;;16.94;45.99
20009;BME280;10165;42.662;23.260;2022-10-31T01:45:52;94614.00;;;16.27;47.77
20009;BME280;10165;42.662;23.260;2022-10-31T01:48:24;94613.75;;;16.39;47.79
20009;BME280;10165;42.662;23.260;2022-10-31T01:50:58;94616.06;;;16.41;47.55
20009;BME280;10165;42.662;23.260;2022-10-31T01:53:26;94614.06;;;16.34;47.89
20009;BME280;10165;42.662;23.260;2022-10-31T01:55:52;94622.69;;;16.47;47.94
20009;BME280;10165;42.662;23.260;2022-10-31T01:58:29;94620.44;;;16.52;47.63
20009;BME280;10165;42.662;23.260;2022-10-31T02:01:09;94627.19;;;16.69;47.30
20009;BME280;10165;42.662;23.260;2022-10-31T02:03:36;94617.28;;;16.80;47.11
20009;BME280;10165;42.662;23.260;2022-10-31T02:06:21;94616.84;;;16.75;47.43
20009;BME280;10165;42.662;23.260;2022-10-31T02:09:03;94608.31;;;16.69;47.74
20009;BME280;10165;42.662;23.260;2022-10-31T02:11:41;94615.84;;;16.90;46.84
20009;BME280;10165;42.662;23.260;2022-10-31T02:14:16;94612.81;;;16.98;46.79
20009;BME280;10165;42.662;23.260;2022-10-31T02:16:43;94603.63;;;17.03;46.26
20009;BME280;10165;42.662;23.260;2022-10-31T02:19:30;94613.56;;;16.95;46.23
20009;BME280;10165;42.662;23.260;2022-10-31T02:22:11;94607.50;;;17.05;45.81
20009;BME280;10165;42.662;23.260;2022-10-31T02:31:06;94626.84;;;17.14;45.48
20009;BME280;10165;42.662;23.260;2022-10-31T02:34:03;94626.09;;;17.17;45.46
20009;BME280;10165;42.662;23.260;2022-10-31T02:37:01;94627.25;;;17.13;45.38
20009;BME280;10165;42.662;23.260;2022-10-31T02:42:41;94626.06;;;17.14;45.73
20009;BME280;10165;42.662;23.260;2022-10-31T02:45:17;94631.88;;;17.16;45.76
20009;BME280;10165;42.662;23.260;2022-10-31T02:47:53;94636.44;;;17.08;46.22
20009;BME280;10165;42.662;23.260;2022-10-31T02:50:29;94641.13;;;17.15;46.11
20009;BME280;10165;42.662;23.260;2022-10-31T02:53:06;94641.66;;;17.31;46.19
20009;BME280;10165;42.662;23.260;2022-10-31T02:58:10;94642.09;;;16.93;47.19
20009;BME280;10165;42.662;23.260;2022-10-31T03:01:01;94640.28;;;17.07;46.69
20009;BME280;10165;42.662;23.260;2022-10-31T03:09:47;94642.69;;;17.16;46.52
20009;BME280;10165;42.662;23.260;2022-10-31T03:12:27;94646.22;;;17.24;46.43
20009;BME280;10165;42.662;23.260;2022-10-31T03:15:22;94648.44;;;17.14;46.35
20009;BME280;10165;42.662;23.260;2022-10-31T03:21:06;94650.72;;;17.09;46.67
20009;BME280;10165;42.662;23.260;2022-10-31T03:23:39;94640.03;;;17.23;46.45
20009;BME280;10165;42.662;23.260;2022-10-31T03:26:15;94647.84;;;17.32;46.11
20009;BME280;10165;42.662;23.260;2022-10-31T03:28:56;94649.25;;;17.18;46.05
20009;BME280;10165;42.662;23.260;2022-10-31T03:31:51;94655.75;;;17.10;46.52
20009;BME280;10165;42.662;23.260;2022-10-31T03:34:20;94653.03;;;17.10;46.66
20009;BME280;10165;42.662;23.260;2022-10-31T03:36:56;94658.34;;;17.00;46.71
20009;BME280;10165;42.662;23.260;2022-10-31T03:39:29;94661.59;;;17.16;46.33
20009;BME280;10165;42.662;23.260;2022-10-31T03:42:05;94657.16;;;16.97;46.90
20009;BME280;10165;42.662;23.260;2022-10-31T03:44:41;94659.97;;;17.08;46.77
20009;BME280;10165;42.662;23.260;2022-10-31T03:47:12;94664.69;;;17.18;46.60
20009;BME280;10165;42.662;23.260;2022-10-31T03:49:43;94664.28;;;17.16;46.82
20009;BME280;10165;42.662;23.260;2022-10-31T03:55:41;94666.19;;;17.12;46.90
20009;BME280;10165;42.662;23.260;2022-10-31T03:58:13;94660.69;;;17.01;47.08
20009;BME280;10165;42.662;23.260;2022-10-31T04:00:51;94666.56;;;17.14;47.03
20009;BME280;10165;42.662;23.260;2022-10-31T04:03:33;94671.63;;;17.19;46.81
20009;BME280;10165;42.662;23.260;2022-10-31T04:06:14;94668.19;;;17.22;46.66
20009;BME280;10165;42.662;23.260;2022-10-31T04:08:53;94673.06;;;17.09;47.13
20009;BME280;10165;42.662;23.260;2022-10-31T04:11:25;94679.44;;;16.91;47.80
20009;BME280;10165;42.662;23.260;2022-10-31T04:14:01;94671.34;;;16.91;47.99
20009;BME280;10165;42.662;23.260;2022-10-31T04:16:34;94682.25;;;16.98;47.62
20009;BME280;10165;42.662;23.260;2022-10-31T04:19:02;94679.09;;;16.92;47.87
20009;BME280;10165;42.662;23.260;2022-10-31T04:21:33;94683.56;;;16.78;48.17
20009;BME280;10165;42.662;23.260;2022-10-31T04:24:11;94679.41;;;16.54;48.87
20009;BME280;10165;42.662;23.260;2022-10-31T04:26:38;94676.47;;;16.62;48.96
20009;BME280;10165;42.662;23.260;2022-10-31T04:29:14;94681.59;;;16.75;48.77
20009;BME280;10165;42.662;23.260;2022-10-31T04:31:40;94675.91;;;16.83;48.84
20009;BME280;10165;42.662;23.260;2022-10-31T04:34:11;94685.91;;;16.83;48.61
20009;BME280;10165;42.662;23.260;2022-10-31T04:36:39;94687.16;;;16.89;48.67
20009;BME280;10165;42.662;23.260;2022-10-31T04:39:19;94684.09;;;16.90;48.35
20009;BME280;10165;42.662;23.260;2022-10-31T04:41:53;94684.53;;;16.96;48.17
20009;BME280;10165;42.662;23.260;2022-10-31T04:44:20;94690.97;;;16.88;48.45
20009;BME280;10165;42.662;23.260;2022-10-31T04:46:55;94683.38;;;16.97;48.31
20009;BME280;10165;42.662;23.260;2022-10-31T04:49:28;94681.13;;;17.06;47.99
20009;BME280;10165;42.662;23.260;2022-10-31T04:51:55;94688.09;;;17.07;48.07
20009;BME280;10165;42.662;23.260;2022-10-31T04:54:23;94685.22;;;16.89;48.57
20009;BME280;10165;42.662;23.260;2022-10-31T04:56:52;94691.72;;;16.85;48.59
20009;BME280;10165;42.662;23.260;2022-10-31T04:59:19;94694.50;;;16.92;48.61
20009;BME280;10165;42.662;23.260;2022-10-31T05:02:17;94702.19;;;16.90;48.65
20009;BME280;10165;42.662;23.260;2022-10-31T05:04:43;94702.59;;;16.92;48.63
20009;BME280;10165;42.662;23.260;2022-10-31T05:07:10;94703.91;;;16.71;49.05
20009;BME280;10165;42.662;23.260;2022-10-31T05:09:43;94707.91;;;16.85;49.23
20009;BME280;10165;42.662;23.260;2022-10-31T05:12:17;94715.75;;;16.97;48.77
20009;BME280;10165;42.662;23.260;2022-10-31T05:14:50;94715.59;;;16.53;49.82
20009;BME280;10165;42.662;23.260;2022-10-31T05:17:21;94718.63;;;16.78;49.42
20009;BME280;10165;42.662;23.260;2022-10-31T05:19:52;94713.56;;;16.72;50.12
20009;BME280;10165;42.662;23.260;2022-10-31T05:22:23;94720.31;;;16.89;49.63
20009;BME280;10165;42.662;23.260;2022-10-31T05:24:55;94721.13;;;16.93;49.38
20009;BME280;10165;42.662;23.260;2022-10-31T05:27:27;94718.06;;;16.98;49.33
20009;BME280;10165;42.662;23.260;2022-10-31T05:30:02;94709.25;;;17.01;49.22
20009;BME280;10165;42.662;23.260;2022-10-31T05:32:39;94714.56;;;16.94;49.37
20009;BME280;10165;42.662;23.260;2022-10-31T05:35:11;94723.78;;;16.90;49.49
20009;BME280;10165;42.662;23.260;2022-10-31T05:37:52;94721.75;;;16.83;51.47
20009;BME280;10165;42.662;23.260;2022-10-31T05:40:21;94734.44;;;16.79;50.23
20009;BME280;10165;42.662;23.260;2022-10-31T05:42:58;94728.09;;;16.64;50.49
20009;BME280;10165;42.662;23.260;2022-10-31T05:45:28;94728.13;;;16.68;50.69
20009;BME280;10165;42.662;23.260;2022-10-31T05:48:08;94736.72;;;16.47;51.27
20009;BME280;10165;42.662;23.260;2022-10-31T05:50:35;94740.38;;;16.58;51.13
20009;BME280;10165;42.662;23.260;2022-10-31T05:53:08;94737.13;;;16.49;51.93
20009;BME280;10165;42.662;23.260;2022-10-31T05:55:40;94735.78;;;16.62;51.56
20009;BME280;10165;42.662;23.260;2022-10-31T05:58:21;94746.19;;;16.34;52.49
20009;BME280;10165;42.662;23.260;2022-10-31T06:00:56;94743.00;;;16.02;53.73
20009;BME280;10165;42.662;23.260;2022-10-31T06:03:23;94742.38;;;16.39;52.65
20009;BME280;10165;42.662;23.260;2022-10-31T06:05:52;94752.56;;;16.52;52.29
20009;BME280;10165;42.662;23.260;2022-10-31T06:08:28;94750.25;;;16.21;53.17
20009;BME280;10165;42.662;23.260;2022-10-31T06:11:02;94753.69;;;16.48;52.23
20009;BME280;10165;42.662;23.260;2022-10-31T06:13:35;94758.97;;;16.67;52.01
20009;BME280;10165;42.662;23.260;2022-10-31T06:16:02;94751.00;;;16.78;51.64
20009;BME280;10165;42.662;23.260;2022-10-31T06:18:28;94756.72;;;16.72;51.70
20009;BME280;10165;42.662;23.260;2022-10-31T06:20:56;94757.97;;;16.79;51.54
20009;BME280;10165;42.662;23.260;2022-10-31T06:23:27;94773.72;;;16.77;51.96
20009;BME280;10165;42.662;23.260;2022-10-31T06:25:53;94769.13;;;16.77;51.87
20009;BME280;10165;42.662;23.260;2022-10-31T06:28:25;94779.53;;;16.52;52.06
20009;BME280;10165;42.662;23.260;2022-10-31T06:31:03;94779.59;;;16.82;51.52
20009;BME280;10165;42.662;23.260;2022-10-31T06:33:29;94783.00;;;16.79;51.53
20009;BME280;10165;42.662;23.260;2022-10-31T06:36:13;94785.00;;;16.82;51.53
20009;BME280;10165;42.662;23.260;2022-10-31T06:38:55;94777.75;;;16.90;51.32
20009;BME280;10165;42.662;23.260;2022-10-31T06:41:33;94780.88;;;16.95;51.24
20009;BME280;10165;42.662;23.260;2022-10-31T06:44:14;94784.13;;;16.75;51.26
20009;BME280;10165;42.662;23.260;2022-10-31T06:46:46;94791.09;;;16.79;51.19
20009;BME280;10165;42.662;23.260;2022-10-31T06:49:22;94785.25;;;16.73;51.48
20009;BME280;10165;42.662;23.260;2022-10-31T06:51:59;94789.19;;;16.80;51.61
20009;BME280;10165;42.662;23.260;2022-10-31T06:54:26;94787.25;;;16.80;51.24
20009;BME280;10165;42.662;23.260;2022-10-31T06:57:00;94781.34;;;17.01;51.10
20009;BME280;10165;42.662;23.260;2022-10-31T06:59:30;94790.53;;;16.63;51.95
20009;BME280;10165;42.662;23.260;2022-10-31T07:01:57;94789.09;;;16.72;51.75
20009;BME280;10165;42.662;23.260;2022-10-31T07:04:37;94778.28;;;17.02;50.88
20009;BME280;10165;42.662;23.260;2022-10-31T07:07:07;94792.38;;;17.22;50.14
20009;BME280;10165;42.662;23.260;2022-10-31T07:09:34;94789.59;;;17.15;50.57
20009;BME280;10165;42.662;23.260;2022-10-31T07:12:15;94799.88;;;16.72;51.28
20009;BME280;10165;42.662;23.260;2022-10-31T07:14:47;94799.97;;;16.80;51.14
20009;BME280;10165;42.662;23.260;2022-10-31T07:17:17;94801.03;;;17.01;50.78
20009;BME280;10165;42.662;23.260;2022-10-31T07:19:45;94790.22;;;17.35;50.07
20009;BME280;10165;42.662;23.260;2022-10-31T07:22:11;94797.19;;;17.06;50.82
20009;BME280;10165;42.662;23.260;2022-10-31T07:24:45;94792.94;;;17.38;50.34
20009;BME280;10165;42.662;23.260;2022-10-31T07:27:11;94786.50;;;17.50;50.11
20009;BME280;10165;42.662;23.260;2022-10-31T07:29:38;94777.09;;;17.70;49.36
20009;BME280;10165;42.662;23.260;2022-10-31T07:32:07;94771.72;;;17.74;49.27
20009;BME280;10165;42.662;23.260;2022-10-31T07:34:34;94765.56;;;17.77;49.23
20009;BME280;10165;42.662;23.260;2022-10-31T07:37:12;94773.56;;;17.29;50.27
20009;BME280;10165;42.662;23.260;2022-10-31T07:39:45;94773.31;;;17.04;51.09
20009;BME280;10165;42.662;23.260;2022-10-31T07:42:21;94767.97;;;17.48;50.05
20009;BME280;10165;42.662;23.260;2022-10-31T07:44:59;94769.53;;;17.12;50.69
20009;BME280;10165;42.662;23.260;2022-10-31T07:47:29;94760.84;;;17.66;49.85
20009;BME280;10165;42.662;23.260;2022-10-31T07:49:56;94763.13;;;17.64;49.74
20009;BME280;10165;42.662;23.260;2022-10-31T07:52:23;94773.53;;;17.62;49.72
20009;BME280;10165;42.662;23.260;2022-10-31T07:54:51;94773.47;;;18.03;48.76
20009;BME280;10165;42.662;23.260;2022-10-31T07:57:18;94764.19;;;18.00;48.98
20009;BME280;10165;42.662;23.260;2022-10-31T07:59:50;94767.50;;;17.80;49.46
20009;BME280;10165;42.662;23.260;2022-10-31T08:02:25;94771.94;;;18.02;49.04
20009;BME280;10165;42.662;23.260;2022-10-31T08:04:57;94757.69;;;18.08;48.91
20009;BME280;10165;42.662;23.260;2022-10-31T08:07:29;94767.72;;;18.04;49.42
20009;BME280;10165;42.662;23.260;2022-10-31T08:10:06;94778.28;;;17.76;50.01
20009;BME280;10165;42.662;23.260;2022-10-31T08:12:33;94772.31;;;18.00;49.33
20009;BME280;10165;42.662;23.260;2022-10-31T08:15:08;94769.91;;;18.43;48.34
20009;BME280;10165;42.662;23.260;2022-10-31T08:17:36;94766.50;;;18.53;47.69
20009;BME280;10165;42.662;23.260;2022-10-31T08:20:05;94770.38;;;18.59;47.98
20009;BME280;10165;42.662;23.260;2022-10-31T08:22:32;94765.41;;;18.68;47.43
20009;BME280;10165;42.662;23.260;2022-10-31T08:24:58;94766.66;;;18.81;47.31
20009;BME280;10165;42.662;23.260;2022-10-31T08:27:29;94770.88;;;18.75;47.45
20009;BME280;10165;42.662;23.260;2022-10-31T08:29:57;94774.41;;;18.90;47.00
20009;BME280;10165;42.662;23.260;2022-10-31T08:32:24;94772.50;;;18.94;46.96
20009;BME280;10165;42.662;23.260;2022-10-31T08:34:55;94777.47;;;18.81;47.00
20009;BME280;10165;42.662;23.260;2022-10-31T08:37:22;94774.81;;;18.92;46.82
20009;BME280;10165;42.662;23.260;2022-10-31T08:39:49;94771.75;;;19.00;47.09
20009;BME280;10165;42.662;23.260;2022-10-31T08:42:27;94774.81;;;18.92;47.32
20009;BME280;10165;42.662;23.260;2022-10-31T08:45:00;94772.50;;;18.97;47.20
20009;BME280;10165;42.662;23.260;2022-10-31T08:47:37;94775.66;;;19.10;46.76
20009;BME280;10165;42.662;23.260;2022-10-31T08:50:04;94767.53;;;19.14;46.60
20009;BME280;10165;42.662;23.260;2022-10-31T08:52:31;94770.66;;;19.19;46.77
20009;BME280;10165;42.662;23.260;2022-10-31T08:55:11;94769.53;;;19.34;46.36
20009;BME280;10165;42.662;23.260;2022-10-31T08:57:57;94767.97;;;19.30;46.35
20009;BME280;10165;42.662;23.260;2022-10-31T09:00:31;94758.31;;;19.36;46.54
20009;BME280;10165;42.662;23.260;2022-10-31T09:03:16;94772.63;;;19.36;46.24
20009;BME280;10165;42.662;23.260;2022-10-31T09:05:59;94779.25;;;19.39;46.49
20009;BME280;10165;42.662;23.260;2022-10-31T09:08:26;94774.66;;;19.53;46.12
20009;BME280;10165;42.662;23.260;2022-10-31T09:10:56;94771.94;;;19.75;45.82
20009;BME280;10165;42.662;23.260;2022-10-31T09:13:26;94766.53;;;19.75;45.84
20009;BME280;10165;42.662;23.260;2022-10-31T09:16:07;94768.88;;;19.83;45.75
20009;BME280;10165;42.662;23.260;2022-10-31T09:18:40;94768.84;;;20.01;45.26
20009;BME280;10165;42.662;23.260;2022-10-31T09:21:12;94766.16;;;19.87;46.05
20009;BME280;10165;42.662;23.260;2022-10-31T09:23:53;94758.03;;;19.62;46.19
20009;BME280;10165;42.662;23.260;2022-10-31T09:26:30;94770.06;;;19.93;46.23
20009;BME280;10165;42.662;23.260;2022-10-31T09:29:00;94763.84;;;19.85;45.99
20009;BME280;10165;42.662;23.260;2022-10-31T09:31:28;94759.19;;;19.93;45.70
20009;BME280;10165;42.662;23.260;2022-10-31T09:33:55;94756.88;;;19.91;45.72
20009;BME280;10165;42.662;23.260;2022-10-31T09:36:30;94756.50;;;20.00;45.40
20009;BME280;10165;42.662;23.260;2022-10-31T09:39:04;94758.81;;;19.84;45.53
20009;BME280;10165;42.662;23.260;2022-10-31T09:41:58;94755.69;;;20.10;45.29
20009;BME280;10165;42.662;23.260;2022-10-31T09:44:33;94756.84;;;20.09;44.78
20009;BME280;10165;42.662;23.260;2022-10-31T09:50:19;94753.38;;;19.98;44.34
20009;BME280;10165;42.662;23.260;2022-10-31T09:53:02;94749.47;;;20.24;44.71
20009;BME280;10165;42.662;23.260;2022-10-31T09:55:40;94751.81;;;20.50;43.31
20009;BME280;10165;42.662;23.260;2022-10-31T09:58:24;94754.09;;;20.55;43.24
20009;BME280;10165;42.662;23.260;2022-10-31T10:01:06;94749.03;;;20.64;43.16
20009;BME280;10165;42.662;23.260;2022-10-31T10:03:45;94752.56;;;20.43;43.22
20009;BME280;10165;42.662;23.260;2022-10-31T10:06:33;94744.75;;;20.67;43.24
20009;BME280;10165;42.662;23.260;2022-10-31T10:09:13;94738.19;;;20.64;43.18
20009;BME280;10165;42.662;23.260;2022-10-31T10:15:00;94733.09;;;20.80;42.33
20009;BME280;10165;42.662;23.260;2022-10-31T10:17:41;94729.13;;;20.99;41.78
20009;BME280;10165;42.662;23.260;2022-10-31T10:23:21;94725.66;;;20.95;41.19
20009;BME280;10165;42.662;23.260;2022-10-31T10:31:53;94720.28;;;21.57;39.40
20009;BME280;10165;42.662;23.260;2022-10-31T10:34:37;94722.63;;;21.55;39.37
20009;BME280;10165;42.662;23.260;2022-10-31T10:37:23;94712.97;;;21.47;39.14
20009;BME280;10165;42.662;23.260;2022-10-31T10:40:11;94703.28;;;21.46;39.18
20009;BME280;10165;42.662;23.260;2022-10-31T10:42:38;94701.16;;;21.68;38.97
20009;BME280;10165;42.662;23.260;2022-10-31T10:45:26;94698.06;;;21.66;39.02
20009;BME280;10165;42.662;23.260;2022-10-31T10:51:17;94690.31;;;21.68;38.98
20009;BME280;10165;42.662;23.260;2022-10-31T10:54:03;94688.75;;;21.67;39.10
20009;BME280;10165;42.662;23.260;2022-10-31T10:59:23;94693.25;;;21.87;38.28
20009;BME280;10165;42.662;23.260;2022-10-31T11:02:00;94694.28;;;22.08;38.16
20009;BME280;10165;42.662;23.260;2022-10-31T11:04:40;94687.81;;;21.91;37.51
20009;BME280;10165;42.662;23.260;2022-10-31T11:07:11;94688.94;;;21.90;37.74
20009;BME280;10165;42.662;23.260;2022-10-31T11:09:47;94694.03;;;21.91;37.70
20009;BME280;10165;42.662;23.260;2022-10-31T11:12:22;94683.69;;;21.69;37.17
20009;BME280;10165;42.662;23.260;2022-10-31T11:15:23;94688.19;;;21.86;36.82
20009;BME280;10165;42.662;23.260;2022-10-31T11:18:01;94687.28;;;22.07;36.72
20009;BME280;10165;42.662;23.260;2022-10-31T11:20:35;94673.88;;;22.26;36.27
20009;BME280;10165;42.662;23.260;2022-10-31T11:23:18;94676.81;;;22.39;35.80
20009;BME280;10165;42.662;23.260;2022-10-31T11:25:54;94668.03;;;22.24;36.46
20009;BME280;10165;42.662;23.260;2022-10-31T11:28:30;94666.88;;;22.25;36.28
20009;BME280;10165;42.662;23.260;2022-10-31T11:31:12;94668.84;;;22.21;36.73
20009;BME280;10165;42.662;23.260;2022-10-31T11:33:59;94667.50;;;22.40;36.36
20009;BME280;10165;42.662;23.260;2022-10-31T11:36:29;94662.69;;;22.51;36.00
20009;BME280;10165;42.662;23.260;2022-10-31T11:38:57;94655.75;;;22.47;36.88
20009;BME280;10165;42.662;23.260;2022-10-31T11:41:29;94661.03;;;22.61;36.13
20009;BME280;10165;42.662;23.260;2022-10-31T11:46:48;94654.91;;;22.53;36.29
20009;BME280;10165;42.662;23.260;2022-10-31T11:51:53;94648.53;;;22.63;35.73
20009;BME280;10165;42.662;23.260;2022-10-31T11:54:30;94645.47;;;22.61;36.46
20009;BME280;10165;42.662;23.260;2022-10-31T11:57:03;94646.56;;;22.67;36.08
20009;BME280;10165;42.662;23.260;2022-10-31T11:59:51;94637.94;;;22.76;36.62
20009;BME280;10165;42.662;23.260;2022-10-31T12:02:27;94640.31;;;22.70;36.11
20009;BME280;10165;42.662;23.260;2022-10-31T12:05:25;94640.22;;;22.77;35.93
20009;BME280;10165;42.662;23.260;2022-10-31T12:07:57;94637.88;;;22.79;36.05
20009;BME280;10165;42.662;23.260;2022-10-31T12:10:51;94634.47;;;22.72;36.17
20009;BME280;10165;42.662;23.260;2022-10-31T12:13:40;94641.50;;;22.69;36.06
20009;BME280;10165;42.662;23.260;2022-10-31T12:16:34;94634.16;;;22.29;36.19
20009;BME280;10165;42.662;23.260;2022-10-31T12:35:44;94639.44;;;22.80;35.92
20009;BME280;10165;42.662;23.260;2022-10-31T12:47:31;94632.72;;;22.85;35.95
20009;BME280;10165;42.662;23.260;2022-10-31T12:50:16;94626.78;;;22.94;35.97
20009;BME280;10165;42.662;23.260;2022-10-31T12:53:10;94630.22;;;22.98;36.06
20009;BME280;10165;42.662;23.260;2022-10-31T12:58:26;94632.72;;;22.85;35.61
20009;BME280;10165;42.662;23.260;2022-10-31T13:01:12;94627.16;;;22.96;35.55
20009;BME280;10165;42.662;23.260;2022-10-31T13:09:42;94626.81;;;22.90;36.00
20009;BME280;10165;42.662;23.260;2022-10-31T13:12:19;94621.03;;;22.88;36.07
20009;BME280;10165;42.662;23.260;2022-10-31T13:15:03;94629.03;;;22.72;36.83
20009;BME280;10165;42.662;23.260;2022-10-31T13:17:41;94631.75;;;22.72;36.98
20009;BME280;10165;42.662;23.260;2022-10-31T13:20:25;94625.16;;;22.66;37.30
20009;BME280;10165;42.662;23.260;2022-10-31T13:23:27;94628.38;;;22.61;36.90
20009;BME280;10165;42.662;23.260;2022-10-31T13:26:36;94625.03;;;22.80;37.18
20009;BME280;10165;42.662;23.260;2022-10-31T13:32:08;94619.81;;;22.59;37.66
20009;BME280;10165;42.662;23.260;2022-10-31T13:34:45;94626.38;;;22.65;37.03
20009;BME280;10165;42.662;23.260;2022-10-31T13:45:32;94618.53;;;22.67;36.92
20009;BME280;10165;42.662;23.260;2022-10-31T13:51:01;94610.38;;;22.67;36.68
20009;BME280;10165;42.662;23.260;2022-10-31T13:53:59;94626.06;;;22.56;36.63
20009;BME280;10165;42.662;23.260;2022-10-31T13:56:42;94612.41;;;22.59;36.46
20009;BME280;10165;42.662;23.260;2022-10-31T13:59:21;94613.09;;;22.67;36.41
20009;BME280;10165;42.662;23.260;2022-10-31T14:02:02;94623.47;;;22.79;36.14
20009;BME280;10165;42.662;23.260;2022-10-31T14:04:44;94614.25;;;22.69;36.54
20009;BME280;10165;42.662;23.260;2022-10-31T14:07:23;94626.66;;;22.74;35.90
20009;BME280;10165;42.662;23.260;2022-10-31T14:10:06;94629.75;;;22.76;36.51
20009;BME280;10165;42.662;23.260;2022-10-31T14:12:54;94628.88;;;22.82;36.38
20009;BME280;10165;42.662;23.260;2022-10-31T14:15:30;94626.69;;;22.70;36.49
20009;BME280;10165;42.662;23.260;2022-10-31T14:18:28;94630.69;;;22.59;36.53
20009;BME280;10165;42.662;23.260;2022-10-31T14:20:56;94626.91;;;22.53;37.07
20009;BME280;10165;42.662;23.260;2022-10-31T14:23:36;94635.81;;;22.57;36.81
20009;BME280;10165;42.662;23.260;2022-10-31T14:28:58;94628.66;;;22.36;37.42
20009;BME280;10165;42.662;23.260;2022-10-31T14:31:36;94641.13;;;22.33;36.89
20009;BME280;10165;42.662;23.260;2022-10-31T14:34:33;94635.38;;;22.24;37.09
20009;BME280;10165;42.662;23.260;2022-10-31T14:37:38;94634.34;;;22.15;37.33
20009;BME280;10165;42.662;23.260;2022-10-31T14:40:26;94639.81;;;22.11;37.82
20009;BME280;10165;42.662;23.260;2022-10-31T14:51:48;94634.22;;;21.81;38.53
20009;BME280;10165;42.662;23.260;2022-10-31T14:54:32;94632.09;;;21.62;39.22
20009;BME280;10165;42.662;23.260;2022-10-31T14:57:05;94640.63;;;21.60;39.65
20009;BME280;10165;42.662;23.260;2022-10-31T14:59:55;94634.91;;;21.48;39.92
20009;BME280;10165;42.662;23.260;2022-10-31T15:02:43;94636.97;;;21.33;40.34
20009;BME280;10165;42.662;23.260;2022-10-31T15:05:26;94640.94;;;21.21;40.63
20009;BME280;10165;42.662;23.260;2022-10-31T15:07:55;94639.03;;;21.15;40.93
20009;BME280;10165;42.662;23.260;2022-10-31T15:10:31;94637.47;;;21.10;40.87
20009;BME280;10165;42.662;23.260;2022-10-31T15:13:30;94637.59;;;20.96;41.16
20009;BME280;10165;42.662;23.260;2022-10-31T15:16:08;94638.38;;;20.89;41.30
20009;BME280;10165;42.662;23.260;2022-10-31T15:21:44;94647.34;;;20.79;41.28
20009;BME280;10165;42.662;23.260;2022-10-31T15:24:17;94651.28;;;20.71;41.57
20009;BME280;10165;42.662;23.260;2022-10-31T15:26:55;94658.69;;;20.64;41.73
20009;BME280;10165;42.662;23.260;2022-10-31T15:29:30;94662.63;;;20.48;42.07